Time;durP1;ratioP1;P1;durP2;ratioP2;P2;SDS_P1;SDS_P2;PMS_P1;PMS_P2;Temp;Humidity;BMP_temperature;BMP_pressure;BME280_temperature;BME280_humidity;BME280_pressure;Samples;Min_cycle;Max_cycle;Signal;HPM_P1;HPM_P2
2021/12/05 00:22:46;;;;;;;24.95;11.70;;;6.60;83.70;;;;;;4953256;28;100458;-69
2021/12/05 00:25:23;;;;;;;26.70;14.32;;;6.60;83.50;;;;;;4970810;28;102557;-69
2021/12/05 00:28:08;;;;;;;20.50;10.60;;;6.60;83.40;;;;;;4971377;28;98487;-69
2021/12/05 00:31:01;;;;;;;25.60;12.65;;;6.60;83.40;;;;;;4953380;28;100374;-69
2021/12/05 00:42:02;;;;;;;16.17;8.88;;;6.70;83.10;;;;;;4972865;28;100180;-69
2021/12/05 01:16:29;;;;;;;14.30;7.65;;;6.60;82.70;;;;;;4972988;28;101322;-69
2021/12/05 01:18:58;;;;;;;13.38;6.90;;;6.70;82.70;;;;;;4956444;28;99416;-70
2021/12/05 01:21:29;;;;;;;15.80;7.00;;;6.70;82.70;;;;;;4956817;28;98782;-69
2021/12/05 01:24:08;;;;;;;10.45;6.25;;;6.60;82.70;;;;;;4972496;28;101575;-69
2021/12/05 01:26:48;;;;;;;12.45;7.10;;;6.60;82.70;;;;;;4956513;28;101686;-69
2021/12/05 01:29:28;;;;;;;20.73;10.35;;;6.60;82.70;;;;;;4972999;28;98650;-69
2021/12/05 02:43:23;;;;;;;9.30;6.10;;;6.50;83.60;;;;;;4971366;28;101975;-74
2021/12/05 02:45:53;;;;;;;11.88;6.63;;;6.50;83.40;;;;;;4955476;28;98659;-74
2021/12/05 02:48:22;;;;;;;10.70;6.35;;;6.50;83.50;;;;;;4973120;28;98581;-74
2021/12/05 02:50:49;;;;;;;15.70;7.03;;;6.50;83.30;;;;;;4955000;28;101978;-74
2021/12/05 02:53:28;;;;;;;13.35;7.00;;;6.60;83.30;;;;;;4955136;28;100076;-74
2021/12/05 02:55:56;;;;;;;16.85;7.40;;;6.60;83.30;;;;;;4955457;28;98653;-74
2021/12/05 02:58:33;;;;;;;13.95;7.20;;;6.60;83.00;;;;;;4955638;28;97859;-74
2021/12/05 03:01:10;;;;;;;15.48;7.55;;;6.60;83.10;;;;;;4954502;28;100372;-74
2021/12/05 03:03:38;;;;;;;18.23;8.80;;;6.60;83.00;;;;;;4954968;28;101339;-74
2021/12/05 03:06:21;;;;;;;15.75;8.02;;;6.60;83.00;;;;;;4954713;28;99305;-74
2021/12/05 03:08:55;;;;;;;11.27;7.80;;;6.60;83.20;;;;;;4954939;28;98551;-74
2021/12/05 03:11:25;;;;;;;12.75;8.40;;;6.60;83.20;;;;;;4971792;28;100320;-70
2021/12/05 03:13:52;;;;;;;18.27;9.32;;;6.60;83.40;;;;;;4954766;28;101354;-70
2021/12/05 03:16:24;;;;;;;24.20;8.80;;;6.60;83.40;;;;;;4954975;28;98531;-69
2021/12/05 03:18:52;;;;;;;21.50;9.63;;;6.70;83.20;;;;;;4955010;28;98761;-69
2021/12/05 03:21:21;;;;;;;17.75;10.10;;;6.70;83.10;;;;;;4954630;28;101758;-74
2021/12/05 03:23:50;;;;;;;20.90;8.82;;;6.70;83.20;;;;;;4972171;28;98887;-74
2021/12/05 03:26:21;;;;;;;13.85;9.05;;;6.70;83.00;;;;;;4954879;28;98996;-74
2021/12/05 03:28:50;;;;;;;21.83;10.43;;;6.70;83.10;;;;;;4955104;28;98519;-74
2021/12/05 03:31:18;;;;;;;20.65;11.20;;;6.70;83.20;;;;;;4971201;28;101018;-74
2021/12/05 03:33:50;;;;;;;23.40;10.98;;;6.70;83.00;;;;;;4954191;28;101945;-74
2021/12/05 03:36:18;;;;;;;18.10;10.70;;;6.70;82.80;;;;;;4971948;28;98484;-74
2021/12/05 03:38:46;;;;;;;23.30;10.88;;;6.70;83.00;;;;;;4954569;28;98590;-70
2021/12/05 03:41:15;;;;;;;20.48;12.00;;;6.70;82.90;;;;;;4953684;28;101836;-69
2021/12/05 03:43:46;;;;;;;19.33;11.70;;;6.70;83.00;;;;;;4954057;28;102088;-69
2021/12/05 03:46:15;;;;;;;18.52;10.93;;;6.70;83.00;;;;;;4970348;28;98614;-69
2021/12/05 03:48:47;;;;;;;18.73;11.68;;;6.70;83.00;;;;;;4954716;28;97839;-70
2021/12/05 03:51:18;;;;;;;18.58;10.95;;;6.70;83.30;;;;;;4953772;28;101795;-70
2021/12/05 03:53:49;;;;;;;20.38;11.75;;;6.60;83.10;;;;;;4953842;28;101394;-69
2021/12/05 03:56:19;;;;;;;21.27;11.20;;;6.60;83.10;;;;;;4953686;28;99490;-69
2021/12/05 03:58:49;;;;;;;20.15;11.05;;;6.60;83.10;;;;;;4954319;28;98935;-70
2021/12/05 04:01:17;;;;;;;19.95;10.98;;;6.60;83.00;;;;;;4953518;28;101789;-74
2021/12/05 04:03:48;;;;;;;18.90;10.77;;;6.60;83.10;;;;;;4953544;28;101399;-74
2021/12/05 04:06:18;;;;;;;20.65;10.98;;;6.60;83.20;;;;;;4953697;28;98557;-74
2021/12/05 04:08:48;;;;;;;22.40;11.65;;;6.60;82.90;;;;;;4950799;28;98532;-74
2021/12/05 04:11:23;;;;;;;23.33;11.98;;;6.60;82.90;;;;;;4949857;28;101718;-74
2021/12/05 04:13:51;;;;;;;22.23;11.13;;;6.60;82.90;;;;;;4952447;28;101499;-74
2021/12/05 04:16:19;;;;;;;20.27;11.25;;;6.60;83.10;;;;;;4953882;28;98607;-74
2021/12/05 04:18:47;;;;;;;22.58;11.15;;;6.60;83.10;;;;;;4938180;28;98596;-74
2021/12/05 04:21:16;;;;;;;21.13;10.30;;;6.60;82.80;;;;;;4953047;28;102923;-74
2021/12/05 04:23:46;;;;;;;18.08;9.55;;;6.60;82.70;;;;;;4954944;28;99751;-74
2021/12/05 04:26:16;;;;;;;19.98;10.65;;;6.60;82.60;;;;;;4954244;28;98617;-74
2021/12/05 04:28:44;;;;;;;17.55;11.45;;;6.60;82.70;;;;;;4953941;28;98566;-74
2021/12/05 04:31:11;;;;;;;16.40;10.18;;;6.60;82.70;;;;;;4953228;28;101643;-75
2021/12/05 04:33:39;;;;;;;20.70;11.07;;;6.60;82.40;;;;;;4953369;28;100416;-74
2021/12/05 04:36:08;;;;;;;22.52;11.30;;;6.60;82.40;;;;;;4969926;28;99011;-74
2021/12/05 04:38:35;;;;;;;14.95;10.43;;;6.60;82.40;;;;;;4953871;28;97836;-74
2021/12/05 04:41:03;;;;;;;16.00;9.98;;;6.60;82.50;;;;;;4954778;28;98948;-74
2021/12/05 04:43:37;;;;;;;21.55;11.32;;;6.60;82.60;;;;;;4969516;28;102014;-74
2021/12/05 04:46:09;;;;;;;19.48;9.77;;;6.60;82.20;;;;;;4969537;28;99359;-74
2021/12/05 04:48:38;;;;;;;15.15;8.75;;;6.60;82.40;;;;;;4953863;28;98542;-74
2021/12/05 04:51:06;;;;;;;18.70;10.00;;;6.50;82.40;;;;;;4953833;28;101089;-74
2021/12/05 04:53:34;;;;;;;15.65;8.98;;;6.50;82.20;;;;;;4954425;28;98829;-74
2021/12/05 04:56:03;;;;;;;20.50;9.13;;;6.50;82.10;;;;;;4937949;28;98590;-74
2021/12/05 04:58:31;;;;;;;18.63;9.52;;;6.50;82.10;;;;;;4953762;28;99124;-74
2021/12/05 05:00:59;;;;;;;15.68;8.23;;;6.50;82.10;;;;;;4953259;28;101662;-74
2021/12/05 05:03:27;;;;;;;20.60;8.32;;;6.50;82.20;;;;;;4955125;28;98973;-74
2021/12/05 05:06:05;;;;;;;13.93;7.93;;;6.40;82.10;;;;;;4955266;28;98446;-74
2021/12/05 05:08:32;;;;;;;12.93;8.80;;;6.40;82.70;;;;;;4938705;28;98585;-74
2021/12/05 05:11:03;;;;;;;19.00;8.23;;;6.40;82.30;;;;;;4954657;28;100664;-74
2021/12/05 05:13:30;;;;;;;17.55;8.85;;;6.40;81.90;;;;;;4953219;28;99462;-74
2021/12/05 05:15:58;;;;;;;17.95;7.65;;;6.40;82.00;;;;;;4955222;28;98511;-74
2021/12/05 05:18:31;;;;;;;14.05;7.18;;;6.40;82.00;;;;;;4954960;28;98469;-74
2021/12/05 05:21:11;;;;;;;14.32;8.07;;;6.30;81.90;;;;;;4954966;28;99183;-74
2021/12/05 05:24:02;;;;;;;14.88;7.30;;;6.30;82.20;;;;;;4954722;28;99048;-74
2021/12/05 05:50:39;;;;;;;14.13;5.93;;;6.10;82.10;;;;;;4969565;28;98396;-74
2021/12/05 05:53:07;;;;;;;13.43;5.53;;;6.10;81.80;;;;;;4954090;28;99042;-74
2021/12/05 05:55:35;;;;;;;11.60;5.72;;;6.10;82.00;;;;;;4954304;28;98788;-74
2021/12/05 05:58:13;;;;;;;12.43;5.70;;;6.10;81.70;;;;;;4954445;28;98526;-74
2021/12/05 06:00:58;;;;;;;17.67;6.40;;;6.10;81.50;;;;;;4954408;28;98546;-74
2021/12/05 06:03:25;;;;;;;13.18;5.63;;;6.10;82.10;;;;;;4953483;28;99746;-74
2021/12/05 06:06:16;;;;;;;12.85;5.80;;;6.10;82.00;;;;;;4953726;28;101429;-74
2021/12/05 06:08:44;;;;;;;17.25;6.40;;;6.10;81.60;;;;;;4960374;28;98424;-74
2021/12/05 06:11:14;;;;;;;13.48;5.93;;;6.10;81.90;;;;;;4973807;28;98559;-74
2021/12/05 06:13:43;;;;;;;11.60;5.97;;;6.10;82.30;;;;;;4955402;28;100692;-74
2021/12/05 06:16:11;;;;;;;12.75;6.30;;;6.10;82.10;;;;;;4971889;28;106058;-70
2021/12/05 06:18:39;;;;;;;12.93;6.00;;;6.10;81.40;;;;;;4973540;28;98587;-69
2021/12/05 06:21:08;;;;;;;16.65;5.60;;;6.10;81.70;;;;;;4974134;28;98315;-69
2021/12/05 06:23:36;;;;;;;9.27;5.18;;;6.10;81.70;;;;;;4972943;28;99173;-70
2021/12/05 06:26:05;;;;;;;11.90;5.95;;;6.10;81.50;;;;;;4973113;28;98787;-69
2021/12/05 06:31:17;;;;;;;11.90;5.88;;;6.10;82.20;;;;;;4971668;28;109077;-69
2021/12/05 06:47:43;;;;;;;14.75;6.30;;;6.00;81.60;;;;;;4973312;28;98759;-70
2021/12/05 06:50:10;;;;;;;11.93;5.43;;;6.00;81.40;;;;;;4973529;28;98527;-70
2021/12/05 06:52:41;;;;;;;11.43;5.80;;;6.10;81.70;;;;;;4973174;28;98530;-69
2021/12/05 06:55:08;;;;;;;12.23;5.75;;;6.10;81.60;;;;;;4972109;28;111891;-69
2021/12/05 06:57:35;;;;;;;15.90;6.55;;;6.00;81.50;;;;;;4972365;28;99518;-69
2021/12/05 07:00:07;;;;;;;16.02;6.65;;;6.10;81.40;;;;;;4973301;28;98415;-70
2021/12/05 07:02:34;;;;;;;12.93;6.10;;;6.10;81.50;;;;;;4973110;28;98948;-69
2021/12/05 07:07:35;;;;;;;12.90;5.53;;;6.20;81.50;;;;;;4972687;28;99906;-69
2021/12/05 07:10:05;;;;;;;12.05;5.90;;;6.20;81.20;;;;;;4972736;28;98454;-69
2021/12/05 07:13:06;;;;;;;15.27;6.13;;;6.20;81.80;;;;;;4955533;28;97832;-69
2021/12/05 07:26:10;;;;;;;18.52;8.45;;;6.20;81.50;;;;;;4972679;28;99010;-70
2021/12/05 07:42:30;;;;;;;16.48;8.45;;;6.30;81.30;;;;;;4972834;28;98487;-69
2021/12/05 07:45:04;;;;;;;19.45;8.75;;;6.30;81.40;;;;;;4972607;28;98857;-69
2021/12/05 07:47:33;;;;;;;16.10;8.23;;;6.30;81.40;;;;;;4972012;28;100330;-69
2021/12/05 07:50:07;;;;;;;16.70;8.77;;;6.30;81.50;;;;;;4975267;28;99565;-70
2021/12/05 07:52:40;;;;;;;15.40;8.25;;;6.30;81.40;;;;;;4976333;28;98924;-75
2021/12/05 07:55:18;;;;;;;17.23;8.85;;;6.40;81.40;;;;;;4958436;28;98453;-75
2021/12/05 08:00:48;;;;;;;16.27;9.77;;;6.50;81.20;;;;;;4957760;28;100172;-75
2021/12/05 08:16:55;;;;;;;17.02;8.57;;;6.70;80.80;;;;;;4973674;28;98609;-75
2021/12/05 08:19:22;;;;;;;17.10;8.98;;;6.70;80.50;;;;;;4975138;28;99030;-75
2021/12/05 08:21:55;;;;;;;20.05;9.13;;;6.80;80.50;;;;;;4975117;28;101584;-75
2021/12/05 08:24:31;;;;;;;16.90;8.65;;;6.80;80.40;;;;;;4975730;28;98441;-75
2021/12/05 08:26:58;;;;;;;16.90;8.88;;;6.80;80.40;;;;;;4975323;28;98526;-75
2021/12/05 08:32:35;;;;;;;19.38;9.15;;;6.90;80.40;;;;;;4958271;28;98814;-75
2021/12/05 08:35:16;;;;;;;13.93;8.35;;;6.90;80.30;;;;;;4975456;28;98411;-75
2021/12/05 08:41:04;;;;;;;19.67;9.40;;;7.00;80.10;;;;;;4974803;28;99869;-75
2021/12/05 09:24:51;;;;;;;18.98;10.30;;;7.50;78.90;;;;;;4973669;28;99101;-75
2021/12/05 09:30:39;;;;;;;81.38;59.75;;;7.60;78.80;;;;;;4973996;28;98517;-75
2021/12/05 10:03:06;;;;;;;22.73;14.20;;;7.60;78.40;;;;;;4973197;28;99206;-75
2021/12/05 10:16:42;;;;;;;51.28;46.42;;;7.70;78.40;;;;;;4932812;28;98669;-75
2021/12/05 10:38:42;;;;;;;11.80;8.95;;;7.50;77.60;;;;;;4973180;28;98388;-70
2021/12/05 10:43:43;;;;;;;12.75;8.00;;;7.50;77.70;;;;;;4972813;28;99895;-70
2021/12/05 10:46:13;;;;;;;13.18;9.90;;;7.50;77.50;;;;;;4972604;28;99603;-69
2021/12/05 10:48:51;;;;;;;11.13;7.78;;;7.50;77.80;;;;;;4967645;28;97747;-75
2021/12/05 10:51:30;;;;;;;18.98;10.95;;;7.50;77.70;;;;;;4952788;28;99102;-75
2021/12/05 10:54:01;;;;;;;16.02;8.52;;;7.50;77.40;;;;;;4952945;28;99984;-75
2021/12/05 10:56:43;;;;;;;12.90;7.90;;;7.50;77.70;;;;;;4953549;28;99204;-75
2021/12/05 10:59:16;;;;;;;10.55;7.47;;;7.50;77.50;;;;;;4953757;28;98627;-75
2021/12/05 11:01:48;;;;;;;13.13;7.63;;;7.50;77.30;;;;;;4953590;28;99127;-75
2021/12/05 11:04:25;;;;;;;16.17;7.82;;;7.50;77.40;;;;;;4952986;28;98854;-75
2021/12/05 11:07:13;;;;;;;18.55;13.13;;;7.60;77.50;;;;;;4952369;28;98559;-75
2021/12/05 11:09:41;;;;;;;17.98;8.65;;;7.60;77.60;;;;;;4952608;28;98496;-75
2021/12/05 11:12:22;;;;;;;13.57;8.88;;;7.60;77.50;;;;;;4951692;28;99171;-75
2021/12/05 11:14:55;;;;;;;12.80;8.52;;;7.60;77.90;;;;;;4953409;28;100311;-75
2021/12/05 11:17:27;;;;;;;12.70;8.73;;;7.60;77.70;;;;;;4952921;28;98435;-75
2021/12/05 11:20:05;;;;;;;13.05;8.32;;;7.60;77.80;;;;;;4953621;28;98870;-74
2021/12/05 11:22:46;;;;;;;18.38;8.32;;;7.70;77.70;;;;;;4951046;28;101164;-75
2021/12/05 11:25:20;;;;;;;10.93;7.78;;;7.70;77.60;;;;;;4952800;28;99862;-75
2021/12/05 11:27:54;;;;;;;13.40;8.02;;;7.70;77.40;;;;;;4953333;28;99024;-75
2021/12/05 11:30:30;;;;;;;15.32;7.78;;;7.70;77.60;;;;;;4951623;28;98563;-75
2021/12/05 11:32:59;;;;;;;16.30;8.32;;;7.70;77.40;;;;;;4951836;28;99255;-75
2021/12/05 11:35:46;;;;;;;13.32;7.72;;;7.70;77.60;;;;;;4952084;28;114276;-75
2021/12/05 11:38:24;;;;;;;14.07;8.07;;;7.60;77.60;;;;;;4953072;28;98418;-75
2021/12/05 11:41:02;;;;;;;13.73;8.45;;;7.60;77.70;;;;;;4953695;28;97812;-75
2021/12/05 11:43:39;;;;;;;16.02;8.05;;;7.50;77.70;;;;;;4952673;28;99179;-75
2021/12/05 11:46:20;;;;;;;15.70;8.40;;;7.50;78.00;;;;;;4952870;28;98726;-75
2021/12/05 11:49:02;;;;;;;13.90;7.75;;;7.40;78.20;;;;;;4935151;28;99722;-75
2021/12/05 11:51:44;;;;;;;12.35;7.47;;;7.40;78.40;;;;;;4952823;28;98412;-74
2021/12/05 11:54:14;;;;;;;14.50;7.97;;;7.40;78.50;;;;;;4952642;28;99358;-74
2021/12/05 11:56:47;;;;;;;14.13;7.18;;;7.30;78.40;;;;;;4952559;28;99837;-75
2021/12/05 11:59:25;;;;;;;14.10;7.32;;;7.30;78.40;;;;;;4940662;28;98656;-75
2021/12/05 12:02:14;;;;;;;16.23;7.82;;;7.40;78.30;;;;;;4971150;28;99018;-75
2021/12/05 12:04:46;;;;;;;14.27;6.88;;;7.40;78.70;;;;;;4972302;28;99277;-75
2021/12/05 12:07:42;;;;;;;13.02;7.13;;;7.40;78.70;;;;;;4972250;28;98894;-75
2021/12/05 12:10:11;;;;;;;12.65;8.52;;;7.40;78.80;;;;;;4972254;28;98504;-75
2021/12/05 12:12:47;;;;;;;9.45;7.40;;;7.40;78.80;;;;;;4972218;28;98564;-75
2021/12/05 12:15:15;;;;;;;12.23;7.60;;;7.50;78.70;;;;;;4971633;28;99936;-75
2021/12/05 12:17:45;;;;;;;13.73;7.65;;;7.50;78.50;;;;;;4971881;28;102589;-75
2021/12/05 12:20:21;;;;;;;15.43;7.82;;;7.50;78.40;;;;;;4972308;28;98567;-75
2021/12/05 12:22:55;;;;;;;12.60;7.38;;;7.60;78.50;;;;;;4971063;28;98772;-75
2021/12/05 12:25:28;;;;;;;8.38;6.78;;;7.60;78.10;;;;;;4954266;28;98487;-75
2021/12/05 12:27:55;;;;;;;10.98;7.20;;;7.60;78.30;;;;;;4972000;28;98952;-75
2021/12/05 12:30:27;;;;;;;13.68;6.97;;;7.60;78.40;;;;;;4972046;28;98628;-75
2021/12/05 12:33:13;;;;;;;12.95;7.35;;;7.60;78.40;;;;;;4972813;28;97747;-75
2021/12/05 12:35:44;;;;;;;8.52;6.50;;;7.70;78.20;;;;;;4974722;28;99114;-75
2021/12/05 12:38:17;;;;;;;13.48;7.18;;;7.80;78.10;;;;;;4974907;28;99035;-75
2021/12/05 12:40:48;;;;;;;12.20;6.90;;;7.90;78.00;;;;;;4975247;28;99634;-75
2021/12/05 12:43:39;;;;;;;9.27;6.45;;;7.90;77.60;;;;;;4975234;28;99011;-75
2021/12/05 12:46:27;;;;;;;11.85;7.38;;;8.00;77.30;;;;;;4957217;28;99281;-74
2021/12/05 12:48:58;;;;;;;15.07;9.10;;;8.00;77.30;;;;;;4974956;28;98927;-75
2021/12/05 12:51:33;;;;;;;12.52;6.75;;;8.00;77.90;;;;;;4975274;28;98462;-74
2021/12/05 12:54:08;;;;;;;9.13;7.03;;;8.10;77.50;;;;;;4957799;28;98583;-75
2021/12/05 12:56:36;;;;;;;459.77;210.25;;;8.10;77.40;;;;;;4974757;28;99182;-75
2021/12/05 12:59:07;;;;;;;12.25;7.22;;;8.00;77.60;;;;;;4973590;28;100056;-75
2021/12/05 13:12:45;;;;;;;12.38;7.38;;;7.90;77.40;;;;;;4975031;28;98784;-75
2021/12/05 13:15:26;;;;;;;15.13;10.25;;;7.80;77.70;;;;;;4974704;28;98510;-75
2021/12/05 13:18:01;;;;;;;12.52;7.95;;;7.80;77.90;;;;;;4956495;28;102285;-75
2021/12/05 13:20:42;;;;;;;15.07;8.10;;;7.80;78.10;;;;;;4957339;28;99977;-74
2021/12/05 13:23:14;;;;;;;13.40;7.78;;;7.80;78.20;;;;;;4957044;28;98796;-74
2021/12/05 13:25:56;;;;;;;10.68;6.55;;;7.80;78.30;;;;;;4974688;28;97777;-75
2021/12/05 13:28:54;;;;;;;14.50;8.00;;;7.80;78.40;;;;;;4974050;28;99142;-75
2021/12/05 13:31:27;;;;;;;15.00;7.75;;;7.80;78.40;;;;;;4965761;28;98953;-75
2021/12/05 13:34:16;;;;;;;12.30;7.50;;;7.80;78.50;;;;;;4974488;28;99361;-75
2021/12/05 13:36:50;;;;;;;12.07;7.20;;;7.80;78.40;;;;;;4974301;28;98556;-75
2021/12/05 13:39:39;;;;;;;13.70;7.82;;;7.80;78.50;;;;;;4974172;28;99083;-75
2021/12/05 13:42:27;;;;;;;12.88;8.00;;;7.90;78.50;;;;;;4974179;28;98766;-75
2021/12/05 13:45:00;;;;;;;14.40;8.05;;;7.90;78.30;;;;;;4974428;28;98888;-75
2021/12/05 13:47:32;;;;;;;11.07;8.00;;;7.90;78.10;;;;;;4955801;28;98506;-75
2021/12/05 13:50:25;;;;;;;10.93;8.07;;;7.90;78.20;;;;;;4973713;28;103185;-75
2021/12/05 13:52:57;;;;;;;12.88;7.75;;;8.00;78.10;;;;;;4974293;28;98775;-75
2021/12/05 13:55:29;;;;;;;14.20;7.75;;;8.00;78.10;;;;;;4974463;28;98415;-75
2021/12/05 13:58:17;;;;;;;14.35;7.70;;;8.00;77.90;;;;;;4974260;28;98800;-75
2021/12/05 14:01:07;;;;;;;12.18;8.68;;;8.00;77.70;;;;;;4973117;28;99867;-75
2021/12/05 14:03:38;;;;;;;13.23;8.35;;;8.00;77.90;;;;;;4973639;28;99450;-75
2021/12/05 14:06:29;;;;;;;14.48;8.15;;;8.00;77.80;;;;;;4974067;28;99022;-75
2021/12/05 14:09:05;;;;;;;10.02;7.72;;;8.00;77.80;;;;;;4973521;28;98952;-75
2021/12/05 14:11:34;;;;;;;11.43;7.40;;;7.90;77.90;;;;;;4973616;28;99521;-75
2021/12/05 14:14:06;;;;;;;10.35;8.02;;;7.90;78.00;;;;;;4973497;28;99022;-75
2021/12/05 14:16:38;;;;;;;11.95;8.43;;;7.90;78.00;;;;;;4973903;28;98823;-75
2021/12/05 14:19:09;;;;;;;12.13;8.77;;;7.90;78.20;;;;;;4956431;28;97801;-75
2021/12/05 14:21:41;;;;;;;11.27;8.63;;;7.90;78.50;;;;;;4972184;28;99107;-75
2021/12/05 14:24:09;;;;;;;14.32;8.98;;;7.90;78.50;;;;;;4973381;28;98774;-75
2021/12/05 14:26:39;;;;;;;12.15;8.52;;;7.80;78.50;;;;;;4972994;28;99212;-75
2021/12/05 14:29:10;;;;;;;14.27;8.15;;;7.80;79.10;;;;;;4973550;28;98487;-75
2021/12/05 14:31:41;;;;;;;16.38;9.15;;;7.80;78.40;;;;;;4973254;28;99339;-75
2021/12/05 14:34:09;;;;;;;13.25;8.18;;;7.80;78.60;;;;;;4973399;28;100535;-70
2021/12/05 14:36:44;;;;;;;12.07;8.50;;;7.70;78.60;;;;;;4973379;28;98476;-75
2021/12/05 14:39:21;;;;;;;12.48;7.68;;;7.70;78.70;;;;;;4973886;28;98873;-69
2021/12/05 14:41:54;;;;;;;15.43;9.48;;;7.70;78.80;;;;;;4973111;28;99130;-70
2021/12/05 14:44:21;;;;;;;13.27;8.57;;;7.70;79.00;;;;;;4972471;28;98903;-70
2021/12/05 14:47:11;;;;;;;14.55;8.98;;;7.60;79.50;;;;;;4972807;28;98951;-70
2021/12/05 14:49:44;;;;;;;15.57;9.88;;;7.70;79.30;;;;;;4973360;28;98501;-70
2021/12/05 14:52:21;;;;;;;18.77;9.45;;;7.60;79.40;;;;;;4972854;28;99963;-70
2021/12/05 14:54:49;;;;;;;12.63;8.68;;;7.60;79.40;;;;;;4971556;28;99624;-70
2021/12/05 14:57:28;;;;;;;12.95;9.27;;;7.60;79.50;;;;;;4954674;28;107426;-70
2021/12/05 15:00:12;;;;;;;15.13;8.93;;;7.60;79.50;;;;;;4955138;28;98558;-70
2021/12/05 15:02:39;;;;;;;15.40;9.55;;;7.60;79.50;;;;;;4972772;28;99058;-70
2021/12/05 15:05:13;;;;;;;14.75;8.23;;;7.50;79.80;;;;;;4954673;28;100078;-70
2021/12/05 15:07:40;;;;;;;13.57;8.30;;;7.50;79.70;;;;;;4972887;28;98934;-69
2021/12/05 15:10:08;;;;;;;13.32;8.55;;;7.50;79.70;;;;;;4973366;28;97793;-70
2021/12/05 15:12:36;;;;;;;12.98;8.90;;;7.50;80.00;;;;;;4972568;28;98549;-70
2021/12/05 15:15:07;;;;;;;12.50;7.80;;;7.40;80.20;;;;;;4955216;28;98884;-70
2021/12/05 15:17:36;;;;;;;12.23;8.57;;;7.40;80.10;;;;;;4971528;28;99223;-75
2021/12/05 15:20:14;;;;;;;15.63;8.80;;;7.40;80.20;;;;;;4955346;28;98957;-69
2021/12/05 15:22:47;;;;;;;15.00;9.48;;;7.40;80.20;;;;;;4954486;28;100367;-75
2021/12/05 15:25:17;;;;;;;12.18;9.25;;;7.40;80.00;;;;;;4972745;28;98751;-70
2021/12/05 15:27:46;;;;;;;16.77;8.80;;;7.40;80.20;;;;;;4971311;28;100314;-70
2021/12/05 15:30:15;;;;;;;16.33;9.40;;;7.40;80.30;;;;;;4972626;28;98501;-69
2021/12/05 15:32:44;;;;;;;11.88;9.00;;;7.30;80.30;;;;;;4972322;28;100812;-70
2021/12/05 15:35:17;;;;;;;14.68;9.55;;;7.30;80.50;;;;;;4972792;28;98844;-70
2021/12/05 15:37:57;;;;;;;11.85;9.30;;;7.30;80.70;;;;;;4972640;28;98509;-70
2021/12/05 15:40:26;;;;;;;16.48;10.60;;;7.30;80.80;;;;;;4972776;28;98550;-69
2021/12/05 15:43:01;;;;;;;18.13;10.00;;;7.20;80.90;;;;;;4971190;28;99899;-70
2021/12/05 15:45:28;;;;;;;20.73;10.98;;;7.30;80.90;;;;;;4971677;28;100677;-69
2021/12/05 15:47:55;;;;;;;17.60;11.80;;;7.20;80.90;;;;;;4971560;28;98527;-70
2021/12/05 15:50:26;;;;;;;16.50;12.02;;;7.20;81.00;;;;;;4970413;28;98607;-69
2021/12/05 15:52:59;;;;;;;17.63;11.30;;;7.20;81.00;;;;;;4971759;28;99218;-69
2021/12/05 15:55:39;;;;;;;16.50;10.90;;;7.20;81.00;;;;;;4953913;28;100018;-70
2021/12/05 15:58:23;;;;;;;24.48;10.27;;;7.20;81.10;;;;;;4972091;28;98419;-69
2021/12/05 16:00:51;;;;;;;15.27;10.37;;;7.10;81.30;;;;;;4972439;28;97716;-69
2021/12/05 16:03:24;;;;;;;19.83;11.93;;;7.10;81.50;;;;;;4971703;28;99134;-69
2021/12/05 16:05:59;;;;;;;15.80;10.85;;;7.10;81.70;;;;;;4971119;28;98949;-70
2021/12/05 16:08:29;;;;;;;18.25;11.63;;;7.10;82.30;;;;;;4971013;28;99243;-70
2021/12/05 16:11:00;;;;;;;19.80;11.93;;;7.10;81.60;;;;;;4974537;28;98534;-70
2021/12/05 16:13:31;;;;;;;15.73;10.95;;;7.10;81.70;;;;;;4975066;28;99139;-70
2021/12/05 16:16:26;;;;;;;15.95;10.65;;;7.00;81.80;;;;;;4974665;28;98919;-70
2021/12/05 16:18:56;;;;;;;17.83;12.43;;;7.00;82.00;;;;;;4974984;28;98576;-70
2021/12/05 16:21:30;;;;;;;19.65;12.45;;;6.90;82.30;;;;;;4975162;28;98611;-70
2021/12/05 16:24:05;;;;;;;18.50;12.77;;;6.90;82.30;;;;;;4974721;28;99207;-69
2021/12/05 16:26:33;;;;;;;22.30;12.43;;;6.90;82.50;;;;;;4975125;28;98879;-69
2021/12/05 16:29:07;;;;;;;23.45;12.35;;;6.90;82.60;;;;;;4974287;28;101330;-70
2021/12/05 16:31:37;;;;;;;21.05;12.23;;;6.90;82.50;;;;;;4973304;28;98577;-70
2021/12/05 16:34:10;;;;;;;22.77;12.55;;;6.90;82.50;;;;;;4972589;28;101091;-69
2021/12/05 16:36:40;;;;;;;26.08;13.82;;;6.90;82.50;;;;;;4956837;28;101087;-70
2021/12/05 16:39:11;;;;;;;24.23;15.15;;;6.90;82.50;;;;;;4974541;28;98526;-70
2021/12/05 16:42:04;;;;;;;24.88;13.40;;;6.90;82.50;;;;;;4975116;28;98561;-70
2021/12/05 16:44:34;;;;;;;23.27;15.45;;;6.80;82.60;;;;;;4974426;28;99128;-70
2021/12/05 16:47:08;;;;;;;25.77;15.15;;;6.80;82.60;;;;;;4972840;28;100056;-70
2021/12/05 16:49:36;;;;;;;;;;;6.80;82.70;;;;;;4975096;28;98494;-69
2021/12/05 16:52:06;;;;;;;23.00;13.43;;;6.70;82.80;;;;;;4976490;28;97768;-70
2021/12/05 16:54:42;;;;;;;21.55;12.75;;;6.80;83.10;;;;;;4972930;28;100278;-69
2021/12/05 16:57:14;;;;;;;20.92;14.45;;;6.80;83.30;;;;;;4972792;28;100004;-70
2021/12/05 16:59:51;;;;;;;21.77;14.05;;;6.80;83.10;;;;;;4956512;28;99343;-69
2021/12/05 17:02:20;;;;;;;25.38;15.82;;;6.80;83.20;;;;;;4973501;28;98548;-70
2021/12/05 17:05:04;;;;;;;31.23;16.98;;;6.80;83.10;;;;;;4955905;28;112468;-70
2021/12/05 17:07:43;;;;;;;28.13;17.77;;;6.80;83.00;;;;;;4974134;28;98812;-70
2021/12/05 17:10:25;;;;;;;30.35;17.20;;;6.80;83.10;;;;;;4973926;28;98510;-69
2021/12/05 17:13:22;;;;;;;28.98;16.75;;;6.80;83.10;;;;;;4956201;28;98552;-70
2021/12/05 17:16:03;;;;;;;30.27;17.52;;;6.80;83.20;;;;;;4953771;28;100436;-69
2021/12/05 17:18:47;;;;;;;29.77;19.67;;;6.80;83.20;;;;;;4955589;28;108959;-70
2021/12/05 17:21:30;;;;;;;29.08;17.42;;;6.70;83.10;;;;;;4974016;28;98432;-69
2021/12/05 17:24:09;;;;;;;26.85;17.85;;;6.70;83.10;;;;;;4974128;28;99073;-69
2021/12/05 17:26:49;;;;;;;27.27;16.83;;;6.70;83.20;;;;;;4973530;28;100032;-70
2021/12/05 17:29:32;;;;;;;30.27;18.83;;;6.60;83.30;;;;;;4973768;28;99628;-70
2021/12/05 17:32:09;;;;;;;28.83;17.00;;;6.60;83.40;;;;;;4973741;28;98530;-69
2021/12/05 17:34:58;;;;;;;28.13;17.08;;;6.60;83.50;;;;;;4974061;28;98490;-70
2021/12/05 17:37:28;;;;;;;29.67;17.27;;;6.70;83.60;;;;;;4973533;28;99135;-70
2021/12/05 17:39:57;;;;;;;31.83;17.40;;;6.70;83.50;;;;;;4973406;28;98746;-69
2021/12/05 17:42:27;;;;;;;25.30;15.40;;;6.70;83.50;;;;;;4973257;28;104927;-69
2021/12/05 17:44:57;;;;;;;22.70;14.15;;;6.70;83.70;;;;;;4974132;28;97825;-70
2021/12/05 17:47:25;;;;;;;29.15;17.75;;;6.60;83.70;;;;;;4973245;28;99669;-69
2021/12/05 17:49:55;;;;;;;33.65;16.90;;;6.60;83.70;;;;;;4955461;28;100218;-70
2021/12/05 17:52:25;;;;;;;27.92;16.38;;;6.60;83.50;;;;;;4973287;28;99253;-70
2021/12/05 17:54:59;;;;;;;26.02;16.02;;;6.50;83.10;;;;;;4973678;28;98514;-69
2021/12/05 17:57:36;;;;;;;27.90;16.13;;;6.50;82.90;;;;;;4955452;28;101837;-70
2021/12/05 18:00:23;;;;;;;25.65;16.75;;;6.50;83.10;;;;;;4971573;28;100222;-69
2021/12/05 18:02:54;;;;;;;28.40;16.70;;;6.50;83.00;;;;;;4973551;28;98570;-69
2021/12/05 18:05:31;;;;;;;23.90;16.90;;;6.40;82.80;;;;;;4973365;28;98439;-70
2021/12/05 18:08:04;;;;;;;26.73;16.63;;;6.40;82.60;;;;;;4954881;28;100136;-69
2021/12/05 18:10:35;;;;;;;24.73;15.93;;;6.40;82.60;;;;;;4973401;28;98834;-70
2021/12/05 18:13:06;;;;;;;24.63;15.73;;;6.30;82.70;;;;;;4972058;28;98751;-69
2021/12/05 18:15:57;;;;;;;21.27;13.00;;;6.20;82.60;;;;;;4973682;28;98553;-70
2021/12/05 18:18:28;;;;;;;27.67;14.93;;;6.10;82.80;;;;;;4972691;28;99870;-69
2021/12/05 18:20:55;;;;;;;22.23;14.43;;;6.10;83.00;;;;;;4972393;28;109180;-69
2021/12/05 18:23:23;;;;;;;21.08;14.00;;;6.20;83.30;;;;;;4972492;28;98499;-70
2021/12/05 18:25:50;;;;;;;22.40;15.10;;;6.10;83.00;;;;;;4973062;28;98413;-69
2021/12/05 18:28:17;;;;;;;24.70;16.00;;;6.10;82.80;;;;;;4972514;28;99178;-70
2021/12/05 18:30:45;;;;;;;24.60;15.75;;;6.00;82.70;;;;;;4972577;28;99632;-70
2021/12/05 18:33:13;;;;;;;25.15;16.05;;;6.00;82.70;;;;;;4971945;28;98509;-69
2021/12/05 18:35:40;;;;;;;24.45;15.32;;;6.10;82.80;;;;;;4973079;28;97750;-69
2021/12/05 18:38:11;;;;;;;26.90;17.65;;;6.00;82.40;;;;;;4972374;28;99231;-70
2021/12/05 18:40:42;;;;;;;26.80;17.17;;;6.00;82.40;;;;;;4972833;28;98951;-70
2021/12/05 18:43:10;;;;;;;25.55;16.00;;;5.80;82.30;;;;;;4954441;28;99466;-70
2021/12/05 18:45:41;;;;;;;31.25;17.95;;;5.70;82.70;;;;;;4972398;28;100704;-70
2021/12/05 18:48:09;;;;;;;26.58;17.23;;;5.70;82.80;;;;;;4972322;28;99009;-70
2021/12/05 18:50:37;;;;;;;28.00;17.40;;;5.70;83.00;;;;;;4954986;28;98795;-70
2021/12/05 18:53:04;;;;;;;29.65;18.30;;;5.70;83.00;;;;;;4971035;28;98637;-69
2021/12/05 18:55:34;;;;;;;28.63;16.85;;;5.70;83.10;;;;;;4971235;28;98528;-69